createdAt,value
2017-04-26T12:55:09.902Z,9.42
2017-04-26T12:57:37.317Z,8.28
2017-04-26T13:00:04.911Z,9.78
2017-04-26T13:02:31.957Z,8.18
2017-04-26T13:04:59.756Z,9.74
2017-04-26T13:07:27.435Z,8.92
2017-04-26T13:09:55.122Z,9.26
2017-04-26T13:12:22.837Z,9.58
2017-04-26T13:14:49.878Z,8.82
2017-04-26T13:17:18.317Z,8.96
2017-04-26T13:19:45.422Z,7.96
2017-04-26T13:22:14.114Z,10.00
2017-04-26T13:24:42.715Z,10.20
2017-04-26T13:27:10.573Z,9.94
2017-04-26T13:29:38.368Z,10.54
2017-04-26T13:32:05.424Z,10.12
2017-04-26T13:34:32.450Z,11.32
2017-04-26T13:37:00.224Z,9.50
2017-04-26T13:39:28.809Z,10.76
2017-04-26T13:41:57.128Z,10.94
2017-04-26T13:44:24.180Z,11.70
2017-04-26T13:46:51.263Z,10.04
2017-04-26T13:49:18.313Z,11.52
2017-04-26T13:51:45.573Z,11.16
2017-04-26T13:54:13.057Z,10.58
2017-04-26T13:56:40.198Z,11.54
2017-04-26T13:59:07.299Z,12.50
2017-04-26T14:01:34.442Z,11.72
2017-04-26T14:04:02.222Z,11.30
2017-04-26T14:06:29.263Z,12.30
2017-04-26T14:08:56.288Z,12.66
2017-04-26T14:11:23.319Z,12.84
2017-04-26T14:13:50.368Z,12.80
2017-04-26T14:16:17.430Z,12.52
2017-04-26T14:18:45.020Z,12.64
2017-04-26T14:21:12.725Z,12.34
2017-04-26T14:23:39.837Z,12.22
2017-04-26T14:26:07.159Z,11.02
2017-04-26T14:28:35.284Z,11.14
2017-04-26T14:31:03.684Z,16.26
2017-04-26T14:33:32.071Z,13.78
2017-04-26T14:35:59.537Z,11.76
2017-04-26T14:38:26.601Z,11.22
2017-04-26T14:40:54.295Z,11.08
2017-04-26T14:43:21.529Z,11.58
2017-04-26T14:45:48.785Z,13.78
2017-04-26T14:48:16.354Z,13.30
2017-04-26T14:50:43.884Z,17.08
2017-04-26T14:53:12.210Z,12.70
2017-04-26T14:55:39.735Z,12.56
2017-04-26T14:58:08.220Z,15.52
2017-04-26T15:00:36.604Z,15.98
2017-04-26T15:03:03.679Z,20.46
2017-04-26T15:05:30.768Z,20.64
2017-04-26T15:07:57.814Z,19.22
2017-04-26T15:10:25.225Z,18.90
2017-04-26T15:12:52.452Z,18.28
2017-04-26T15:15:19.519Z,12.26
2017-04-26T15:17:46.574Z,12.54
2017-04-26T15:20:14.163Z,12.02
2017-04-26T15:22:41.770Z,11.80
2017-04-26T15:25:09.562Z,12.46
2017-04-26T15:27:37.179Z,10.04
2017-04-26T15:30:04.267Z,11.74
2017-04-26T15:32:31.891Z,12.04
2017-04-26T15:34:59.855Z,12.88
2017-04-26T15:37:28.228Z,11.08
2017-04-26T15:39:57.664Z,12.62
2017-04-26T15:42:25.413Z,11.94
2017-04-26T15:44:53.809Z,12.48
2017-04-26T15:47:21.184Z,13.76
2017-04-26T15:49:48.298Z,12.32
2017-04-26T15:52:15.397Z,12.88
2017-04-26T15:54:42.521Z,12.08
2017-04-26T15:57:10.304Z,11.82
2017-04-26T15:59:37.418Z,12.24
2017-04-26T16:02:04.449Z,13.28
2017-04-26T16:04:31.476Z,12.14
2017-04-26T16:06:58.547Z,14.04
2017-04-26T16:09:25.591Z,15.28
2017-04-26T16:11:52.668Z,11.78
2017-04-26T16:14:21.888Z,12.74
2017-04-26T16:16:48.992Z,13.02
2017-04-26T16:19:17.064Z,13.50
2017-04-26T16:21:44.102Z,13.42
2017-04-26T16:24:11.951Z,14.96
2017-04-26T16:26:39.011Z,12.46
2017-04-26T16:29:08.799Z,15.92
2017-04-26T16:31:35.964Z,15.46
2017-04-26T16:34:03.068Z,15.00
2017-04-26T16:36:30.243Z,13.96
2017-04-26T16:38:57.260Z,14.40
2017-04-26T16:41:25.163Z,14.88
2017-04-26T16:43:52.228Z,15.48
2017-04-26T16:46:19.620Z,14.50
2017-04-26T16:48:46.684Z,14.68
2017-04-26T16:51:14.582Z,18.64
2017-04-26T16:53:42.247Z,19.10
2017-04-26T16:56:09.804Z,14.90
2017-04-26T16:58:36.858Z,14.76
2017-04-26T17:01:03.921Z,14.28
2017-04-26T17:03:31.006Z,14.38
2017-04-26T17:05:58.089Z,17.10
2017-04-26T17:08:25.218Z,13.78
2017-04-26T17:10:52.263Z,17.68
2017-04-26T17:13:19.288Z,13.74
2017-04-26T17:15:46.396Z,15.02
2017-04-26T17:18:13.493Z,13.44
2017-04-26T17:20:41.141Z,12.20
2017-04-26T17:23:09.521Z,13.56
2017-04-26T17:25:37.740Z,14.34
2017-04-26T17:28:04.902Z,13.32
2017-04-26T17:30:31.933Z,14.30
2017-04-26T17:32:59.026Z,14.52
2017-04-26T17:35:26.073Z,13.78
2017-04-26T17:37:53.124Z,14.24
2017-04-26T17:40:20.383Z,15.64
2017-04-26T17:42:47.990Z,16.54
2017-04-26T17:45:15.455Z,14.12
2017-04-26T17:47:43.665Z,13.94
2017-04-26T17:50:11.507Z,16.42
2017-04-26T17:52:39.792Z,14.06
2017-04-26T17:55:08.067Z,13.16
2017-04-26T17:57:36.095Z,16.46
2017-04-26T18:00:05.416Z,14.06
2017-04-26T18:02:32.499Z,15.64
2017-04-26T18:04:59.562Z,14.34
2017-04-26T18:07:27.359Z,15.42
2017-04-26T18:09:54.489Z,14.60
2017-04-26T18:12:22.217Z,15.20
2017-04-26T18:14:49.570Z,16.40
2017-04-26T18:17:16.673Z,18.56
2017-04-26T18:19:44.505Z,16.18
2017-04-26T18:22:11.612Z,16.66
2017-04-26T18:24:38.652Z,14.48
2017-04-26T18:27:06.475Z,15.54
2017-04-26T18:29:33.522Z,15.82
2017-04-26T18:32:00.547Z,16.90
2017-04-26T18:34:27.642Z,16.60
2017-04-26T18:36:54.804Z,19.84
2017-04-26T18:39:21.883Z,18.94
2017-04-26T18:41:49.696Z,21.30
2017-04-26T18:44:16.730Z,28.28
2017-04-26T18:46:43.788Z,27.68
2017-04-26T18:49:10.854Z,26.72
2017-04-26T18:51:37.910Z,20.54
2017-04-26T18:54:05.001Z,21.96
2017-04-26T18:56:32.079Z,21.92
2017-04-26T18:58:59.213Z,24.38
2017-04-26T19:01:26.273Z,25.70
2017-04-26T19:03:53.317Z,23.58
2017-04-26T19:06:20.528Z,29.02
2017-04-26T19:08:47.729Z,35.06
2017-04-26T19:11:15.381Z,27.62
2017-04-26T19:13:42.476Z,22.90
2017-04-26T19:16:10.338Z,23.64
2017-04-26T19:18:38.120Z,19.88
2017-04-26T19:21:05.933Z,22.06
2017-04-26T19:23:33.779Z,24.14
2017-04-26T19:26:01.350Z,24.67
2017-04-26T19:28:28.390Z,29.27
2017-04-26T19:30:55.448Z,26.02
2017-04-26T19:33:22.587Z,25.30
2017-04-26T19:35:50.401Z,26.20
2017-04-26T19:38:17.469Z,26.02
2017-04-26T19:40:44.531Z,26.00
2017-04-26T19:43:11.577Z,28.32
2017-04-26T19:45:40.087Z,38.74
2017-04-26T19:48:07.128Z,27.58
2017-04-26T19:50:34.163Z,24.00
2017-04-26T19:53:01.293Z,21.52
2017-04-26T19:55:28.337Z,25.68
2017-04-26T19:57:55.379Z,30.04
2017-04-26T20:00:22.401Z,28.90
2017-04-26T20:02:49.456Z,28.30
2017-04-26T20:05:16.520Z,33.42
2017-04-26T20:07:44.612Z,33.37
2017-04-26T20:10:11.690Z,36.18
2017-04-26T20:12:38.713Z,31.97
2017-04-26T20:15:06.470Z,31.98
2017-04-26T20:17:34.249Z,26.32
2017-04-26T20:20:02.051Z,23.26
2017-04-26T20:22:29.162Z,22.90
2017-04-26T20:24:57.017Z,24.52
2017-04-26T20:27:24.096Z,25.98
2017-04-26T20:29:51.954Z,23.34
2017-04-26T20:32:19.790Z,32.18
2017-04-26T20:34:46.880Z,38.27
2017-04-26T20:37:14.822Z,28.48
2017-04-26T20:39:41.949Z,24.72
2017-04-26T20:42:09.044Z,27.47
2017-04-26T20:44:36.136Z,29.63
2017-04-26T20:47:03.948Z,30.12
2017-04-26T20:49:31.023Z,27.93
2017-04-26T20:51:58.089Z,28.10
2017-04-26T20:54:25.295Z,25.78
2017-04-26T20:56:52.381Z,26.73
2017-04-26T20:59:19.535Z,26.65
2017-04-26T21:01:46.605Z,27.77
2017-04-26T21:04:13.652Z,29.72
2017-04-26T21:06:40.745Z,28.72
2017-04-26T21:09:07.830Z,28.00
2017-04-26T21:11:34.967Z,29.80
2017-04-26T21:14:02.080Z,28.57
2017-04-26T21:16:29.937Z,29.00
2017-04-26T21:18:57.016Z,28.18
2017-04-26T21:21:24.820Z,27.20
2017-04-26T21:23:51.911Z,27.72
2017-04-26T21:26:18.955Z,26.52
2017-04-26T21:28:46.004Z,29.28
2017-04-26T21:31:13.092Z,32.66
2017-04-26T21:33:40.255Z,28.98
2017-04-26T21:36:08.582Z,27.32
2017-04-26T21:38:35.673Z,27.04
2017-04-26T21:41:02.903Z,29.68
2017-04-26T21:43:29.956Z,29.30
2017-04-26T21:45:57.138Z,30.08
2017-04-26T21:48:24.426Z,33.23
2017-04-26T21:50:51.503Z,30.17
2017-04-26T21:53:18.584Z,32.80
2017-04-26T21:55:45.655Z,33.76
2017-04-26T21:58:12.774Z,27.84
2017-04-26T22:00:39.956Z,36.88
2017-04-26T22:03:07.032Z,39.34
2017-04-26T22:05:34.932Z,38.13
2017-04-26T22:08:01.999Z,33.15
2017-04-26T22:10:29.176Z,31.97
2017-04-26T22:12:56.239Z,33.00
2017-04-26T22:15:23.416Z,33.23
2017-04-26T22:17:50.536Z,34.52
2017-04-26T22:20:17.615Z,38.32
2017-04-26T22:22:44.835Z,33.97
2017-04-26T22:25:11.954Z,31.43
2017-04-26T22:27:39.803Z,36.04
2017-04-26T22:30:06.862Z,31.80
2017-04-26T22:32:33.923Z,33.40
2017-04-26T22:35:01.736Z,31.06
2017-04-26T22:37:28.812Z,33.14
2017-04-26T22:39:55.898Z,31.76
2017-04-26T22:42:23.011Z,31.02
2017-04-26T22:44:50.127Z,32.78
2017-04-26T22:47:17.156Z,35.92
2017-04-26T22:49:44.955Z,36.37
2017-04-26T22:52:12.044Z,37.37
2017-04-26T22:54:39.112Z,39.18
2017-04-26T22:57:06.204Z,38.60
2017-04-26T22:59:33.984Z,39.22
2017-04-26T23:02:01.064Z,39.73
2017-04-26T23:04:28.124Z,42.03
2017-04-26T23:06:55.163Z,31.68
2017-04-26T23:09:22.300Z,34.85
2017-04-26T23:11:49.420Z,30.30
2017-04-26T23:14:16.497Z,33.03
2017-04-26T23:16:44.521Z,34.62
2017-04-26T23:19:11.669Z,33.53
2017-04-26T23:21:38.725Z,33.63
2017-04-26T23:24:05.964Z,33.58
2017-04-26T23:26:33.053Z,34.82
2017-04-26T23:29:00.149Z,35.77
2017-04-26T23:31:27.203Z,37.25
2017-04-26T23:33:54.240Z,32.70
2017-04-26T23:36:29.163Z,32.38
2017-04-26T23:38:56.228Z,34.72
2017-04-26T23:41:24.058Z,36.38
2017-04-26T23:43:51.148Z,35.93
2017-04-26T23:46:18.968Z,40.07
2017-04-26T23:48:46.067Z,41.70
2017-04-26T23:51:13.925Z,38.38
2017-04-26T23:53:40.971Z,45.63
2017-04-26T23:56:08.052Z,41.75
2017-04-26T23:58:35.898Z,43.33
